createdAt,value
2023-01-25T00:01:34.501Z,0.50
2023-01-25T00:03:36.086Z,0.61
2023-01-25T00:05:37.985Z,0.70
2023-01-25T00:07:39.526Z,0.77
2023-01-25T00:09:41.169Z,0.88
2023-01-25T00:11:44.325Z,0.90
2023-01-25T00:13:46.159Z,1.01
2023-01-25T00:15:47.752Z,1.01
2023-01-25T00:17:49.434Z,1.02
2023-01-25T00:19:50.963Z,0.89
2023-01-25T00:21:52.506Z,0.83
2023-01-25T00:23:54.448Z,0.68
2023-01-25T00:25:59.224Z,0.64
2023-01-25T00:28:00.782Z,0.64
2023-01-25T00:30:40.033Z,0.69
2023-01-25T00:33:37.571Z,0.74
2023-01-25T00:36:16.820Z,0.80
2023-01-25T00:38:38.437Z,0.89
2023-01-25T00:40:59.282Z,0.59
2023-01-25T00:43:07.063Z,0.66
2023-01-25T00:45:10.990Z,0.69
2023-01-25T00:47:13.398Z,0.73
2023-01-25T00:49:24.023Z,0.77
2023-01-25T00:51:26.141Z,0.73
2023-01-25T00:53:27.826Z,0.78
2023-01-25T00:55:29.407Z,0.56
2023-01-25T00:57:31.695Z,0.38
2023-01-25T00:59:34.514Z,0.29
2023-01-25T01:01:36.876Z,-0.12
2023-01-25T01:03:39.017Z,-0.10
2023-01-25T01:05:41.692Z,0.02
2023-01-25T01:08:02.036Z,0.19
2023-01-25T01:10:22.552Z,0.04
2023-01-25T01:13:22.830Z,0.35
2023-01-25T01:16:39.651Z,0.33
2023-01-25T01:19:43.724Z,0.13
2023-01-25T01:21:48.643Z,0.14
2023-01-25T01:23:50.274Z,0.27
2023-01-25T01:25:51.835Z,0.33
2023-01-25T01:27:53.393Z,0.49
2023-01-25T01:29:55.879Z,0.47
2023-01-25T01:31:57.496Z,0.48
2023-01-25T01:34:01.874Z,0.44
2023-01-25T01:36:17.585Z,0.54
2023-01-25T01:38:19.333Z,0.51
2023-01-25T01:40:21.006Z,0.53
2023-01-25T01:42:22.897Z,0.50
2023-01-25T01:44:47.345Z,0.61
2023-01-25T01:46:54.881Z,0.66
2023-01-25T01:49:04.689Z,0.67
2023-01-25T01:51:23.162Z,0.68
2023-01-25T01:53:25.914Z,0.68
2023-01-25T01:55:29.041Z,0.68
2023-01-25T01:57:55.065Z,0.50
2023-01-25T02:00:08.511Z,0.63
2023-01-25T02:02:17.045Z,0.65
2023-01-25T02:04:22.217Z,0.75
2023-01-25T02:06:48.399Z,0.73
2023-01-25T02:08:52.912Z,0.72
2023-01-25T02:10:55.902Z,0.73
2023-01-25T02:12:58.608Z,0.71
2023-01-25T02:15:00.887Z,0.75
2023-01-25T02:17:03.744Z,0.40
2023-01-25T02:19:07.867Z,0.45
2023-01-25T02:21:10.230Z,0.55
2023-01-25T02:23:34.494Z,0.64
2023-01-25T02:25:38.248Z,0.58
2023-01-25T02:27:46.199Z,0.61
2023-01-25T02:29:48.629Z,0.67
2023-01-25T02:31:52.607Z,0.71
2023-01-25T02:33:54.558Z,0.70
2023-01-25T02:36:07.827Z,0.79
2023-01-25T02:38:13.326Z,0.77
2023-01-25T02:40:14.959Z,0.85
2023-01-25T02:42:16.923Z,0.90
2023-01-25T02:44:24.310Z,0.89
2023-01-25T02:46:31.580Z,0.78
2023-01-25T02:48:33.560Z,0.63
2023-01-25T02:50:35.127Z,0.57
2023-01-25T02:52:36.703Z,0.66
2023-01-25T02:54:38.296Z,0.59
2023-01-25T02:56:42.511Z,0.62
2023-01-25T02:58:46.079Z,0.64
2023-01-25T03:00:47.654Z,0.39
2023-01-25T03:02:49.501Z,0.47
2023-01-25T03:04:51.237Z,0.44
2023-01-25T03:06:53.180Z,0.50
2023-01-25T03:08:54.775Z,0.38
2023-01-25T03:10:58.567Z,0.40
2023-01-25T03:13:01.959Z,0.30
2023-01-25T03:15:04.117Z,0.38
2023-01-25T03:17:05.765Z,0.40
2023-01-25T03:19:07.467Z,0.35
2023-01-25T03:21:14.952Z,0.43
2023-01-25T03:23:17.264Z,0.39
2023-01-25T03:25:19.221Z,0.35
2023-01-25T03:27:30.629Z,-0.04
2023-01-25T03:29:38.365Z,0.13
2023-01-25T03:31:45.556Z,0.04
2023-01-25T03:33:49.661Z,0.00
2023-01-25T03:35:54.861Z,0.09
2023-01-25T03:37:56.632Z,0.18
2023-01-25T03:39:58.259Z,0.25
2023-01-25T03:42:00.138Z,0.43
2023-01-25T03:44:02.026Z,0.44
2023-01-25T03:46:04.239Z,0.00
2023-01-25T03:48:07.534Z,0.10
2023-01-25T03:50:09.787Z,0.21
2023-01-25T03:52:12.656Z,0.27
2023-01-25T03:54:16.455Z,0.38
2023-01-25T03:56:20.323Z,0.33
2023-01-25T03:58:54.059Z,0.23
2023-01-25T04:00:58.840Z,0.39
2023-01-25T04:03:01.214Z,0.39
2023-01-25T04:05:04.098Z,0.35
2023-01-25T04:07:05.776Z,0.38
2023-01-25T04:09:09.461Z,0.30
2023-01-25T04:11:15.295Z,0.26
2023-01-25T04:13:21.070Z,0.34
2023-01-25T04:15:22.773Z,0.38
2023-01-25T04:17:24.433Z,-0.14
2023-01-25T04:19:52.247Z,-0.27
2023-01-25T04:21:57.732Z,-0.51
2023-01-25T04:24:05.196Z,-0.27
2023-01-25T04:26:12.443Z,-0.20
2023-01-25T04:28:15.571Z,-0.07
2023-01-25T04:30:18.091Z,0.01
2023-01-25T04:32:20.754Z,-0.27
2023-01-25T04:34:22.583Z,-0.33
2023-01-25T04:36:24.120Z,-0.30
2023-01-25T04:38:26.558Z,-0.24
2023-01-25T04:40:28.714Z,-0.34
2023-01-25T04:42:30.580Z,-0.35
2023-01-25T04:44:33.850Z,-0.30
2023-01-25T04:46:35.431Z,-0.47
2023-01-25T04:48:37.080Z,-0.30
2023-01-25T04:50:42.364Z,-0.23
2023-01-25T04:52:45.243Z,-0.13
2023-01-25T04:54:46.807Z,-0.08
2023-01-25T04:56:48.931Z,0.01
2023-01-25T04:58:50.503Z,0.00
2023-01-25T05:00:52.033Z,-0.69
2023-01-25T05:02:54.350Z,-0.82
2023-01-25T05:04:58.133Z,-0.63
2023-01-25T05:06:59.771Z,-0.71
2023-01-25T05:09:02.250Z,-0.48
2023-01-25T05:11:04.559Z,-0.31
2023-01-25T05:13:15.175Z,-0.15
2023-01-25T05:15:18.921Z,-0.10
2023-01-25T05:17:20.810Z,0.01
2023-01-25T05:19:22.395Z,0.00
2023-01-25T05:21:53.431Z,-0.03
2023-01-25T05:23:55.352Z,0.06
2023-01-25T05:26:16.242Z,0.14
2023-01-25T05:28:17.947Z,0.24
2023-01-25T05:30:40.456Z,0.18
2023-01-25T05:32:55.656Z,0.18
2023-01-25T05:34:59.994Z,-0.13
2023-01-25T05:37:02.919Z,-0.05
2023-01-25T05:39:06.542Z,0.00
2023-01-25T05:41:08.650Z,-0.03
2023-01-25T05:43:10.649Z,0.03
2023-01-25T05:45:14.418Z,0.08
2023-01-25T05:47:17.702Z,-0.03
2023-01-25T05:49:19.797Z,-0.09
2023-01-25T05:51:21.513Z,0.00
2023-01-25T05:53:26.903Z,0.11
2023-01-25T05:55:28.622Z,0.13
2023-01-25T05:57:32.389Z,0.10
2023-01-25T05:59:35.879Z,0.23
2023-01-25T06:01:40.476Z,0.31
2023-01-25T06:03:42.992Z,0.26
2023-01-25T06:05:44.647Z,0.24
2023-01-25T06:07:46.198Z,0.33
2023-01-25T06:09:48.890Z,0.06
2023-01-25T06:11:50.574Z,-0.09
2023-01-25T06:13:52.489Z,-0.01
2023-01-25T06:15:56.355Z,0.05
2023-01-25T06:18:31.574Z,-0.54
2023-01-25T06:20:44.318Z,-0.59
2023-01-25T06:22:52.295Z,-0.63
2023-01-25T06:24:54.131Z,-0.48
2023-01-25T06:26:55.781Z,-0.30
2023-01-25T06:28:57.367Z,-0.23
2023-01-25T06:31:11.232Z,-0.28
2023-01-25T06:33:12.737Z,-0.47
2023-01-25T06:35:14.319Z,-0.45
2023-01-25T06:37:16.057Z,-0.39
2023-01-25T06:39:17.751Z,-0.68
2023-01-25T06:41:19.908Z,-0.56
2023-01-25T06:43:21.558Z,-0.48
2023-01-25T06:45:23.159Z,-0.60
2023-01-25T06:47:24.724Z,-0.73
2023-01-25T06:49:26.246Z,-0.87
2023-01-25T06:51:27.857Z,-1.10
2023-01-25T06:53:31.997Z,-1.14
2023-01-25T06:55:33.633Z,-0.86
2023-01-25T06:57:35.753Z,-0.24
2023-01-25T06:59:37.725Z,-0.52
2023-01-25T07:01:39.351Z,-0.40
2023-01-25T07:03:41.413Z,-0.31
2023-01-25T07:05:42.964Z,-0.20
2023-01-25T07:07:46.407Z,-0.37
2023-01-25T07:09:48.302Z,-0.33
2023-01-25T07:11:52.659Z,-0.23
2023-01-25T07:13:54.222Z,-0.59
2023-01-25T07:15:58.545Z,-1.09
2023-01-25T07:18:14.755Z,-0.98
2023-01-25T07:20:17.623Z,-0.01
2023-01-25T07:22:19.189Z,0.00
2023-01-25T07:24:20.949Z,-0.09
2023-01-25T07:26:25.181Z,-0.05
2023-01-25T07:28:26.817Z,-0.01
2023-01-25T07:30:28.575Z,0.10
2023-01-25T07:32:30.085Z,0.06
2023-01-25T07:34:31.564Z,0.03
2023-01-25T07:36:33.106Z,0.14
2023-01-25T07:38:36.272Z,0.14
2023-01-25T07:40:37.831Z,0.28
2023-01-25T07:42:39.378Z,0.34
2023-01-25T07:44:50.758Z,0.24
2023-01-25T07:46:53.652Z,0.23
2023-01-25T07:48:55.246Z,0.68
2023-01-25T07:51:13.032Z,0.38
2023-01-25T07:53:16.357Z,0.44
2023-01-25T07:55:18.016Z,0.40
2023-01-25T07:57:20.522Z,0.25
2023-01-25T07:59:22.011Z,0.22
2023-01-25T08:01:25.763Z,0.19
2023-01-25T08:03:27.525Z,-0.05
2023-01-25T08:05:29.180Z,-0.06
2023-01-25T08:07:30.898Z,0.07
2023-01-25T08:09:32.867Z,-0.07
2023-01-25T08:11:34.717Z,0.07
2023-01-25T08:13:36.350Z,0.08
2023-01-25T08:15:39.451Z,0.20
2023-01-25T08:17:41.135Z,0.30
2023-01-25T08:19:43.005Z,0.23
2023-01-25T08:21:44.554Z,0.19
2023-01-25T08:23:46.286Z,0.24
2023-01-25T08:25:47.900Z,0.10
2023-01-25T08:27:49.552Z,0.09
2023-01-25T08:29:51.520Z,0.11
2023-01-25T08:31:53.566Z,0.24
2023-01-25T08:33:55.996Z,0.33
2023-01-25T08:35:57.556Z,0.30
2023-01-25T08:37:59.119Z,0.33
2023-01-25T08:40:01.296Z,0.35
2023-01-25T08:42:02.823Z,0.23
2023-01-25T08:44:05.408Z,0.22
2023-01-25T08:46:07.201Z,0.23
2023-01-25T08:48:08.785Z,0.22
2023-01-25T08:50:11.475Z,0.37
2023-01-25T08:52:14.858Z,0.30
2023-01-25T08:54:16.500Z,0.33
2023-01-25T08:56:18.969Z,0.37
2023-01-25T08:58:22.753Z,0.36
2023-01-25T09:00:24.436Z,0.50
2023-01-25T09:02:26.097Z,0.53
2023-01-25T09:04:28.493Z,0.54
2023-01-25T09:06:30.362Z,0.56
2023-01-25T09:08:32.287Z,0.58
2023-01-25T09:10:34.515Z,0.55
2023-01-25T09:12:36.137Z,0.66
2023-01-25T09:14:40.176Z,0.68
2023-01-25T09:16:41.708Z,0.68
2023-01-25T09:18:45.268Z,0.81
2023-01-25T09:20:46.814Z,0.79
2023-01-25T09:22:48.481Z,0.88
2023-01-25T09:24:52.317Z,0.80
2023-01-25T09:26:59.603Z,0.30
2023-01-25T09:29:02.059Z,0.46
2023-01-25T09:31:20.606Z,0.47
2023-01-25T09:33:42.479Z,0.60
2023-01-25T09:35:48.960Z,0.55
2023-01-25T09:37:52.603Z,-0.07
2023-01-25T09:39:54.110Z,-0.24
2023-01-25T09:42:32.637Z,-0.14
2023-01-25T09:44:59.564Z,0.16
2023-01-25T09:47:31.062Z,0.09
2023-01-25T09:49:41.858Z,0.29
2023-01-25T09:52:06.131Z,0.39
2023-01-25T09:54:10.338Z,0.48
2023-01-25T09:56:24.827Z,0.52
2023-01-25T09:58:32.427Z,0.47
2023-01-25T10:00:38.472Z,0.61
2023-01-25T10:02:45.373Z,0.66
2023-01-25T10:04:50.379Z,0.77
2023-01-25T10:07:01.114Z,0.85
2023-01-25T10:09:33.936Z,0.86
2023-01-25T10:11:38.639Z,0.58
2023-01-25T10:13:40.299Z,0.76
2023-01-25T10:15:48.848Z,0.73
2023-01-25T10:18:15.553Z,0.94
2023-01-25T10:20:43.792Z,1.10
2023-01-25T10:23:07.697Z,0.85
2023-01-25T10:25:38.046Z,0.03
2023-01-25T10:27:57.565Z,-0.18
2023-01-25T10:30:02.402Z,0.16
2023-01-25T10:32:23.236Z,0.30
2023-01-25T10:34:44.071Z,0.60
2023-01-25T10:37:20.730Z,0.78
2023-01-25T10:39:24.028Z,0.94
2023-01-25T10:41:39.161Z,1.01
2023-01-25T10:43:40.645Z,0.41
2023-01-25T10:45:44.511Z,0.22
2023-01-25T10:47:54.937Z,0.07
2023-01-25T10:49:58.302Z,0.35
2023-01-25T10:52:17.879Z,0.40
2023-01-25T10:54:22.941Z,0.16
2023-01-25T10:56:26.045Z,0.06
2023-01-25T10:58:36.589Z,0.25
2023-01-25T11:00:40.303Z,0.39
2023-01-25T11:02:46.360Z,0.37
2023-01-25T11:04:48.641Z,0.67
2023-01-25T11:06:51.491Z,0.28
2023-01-25T11:08:53.090Z,-0.21
2023-01-25T11:10:54.806Z,-0.08
2023-01-25T11:13:14.532Z,0.32
2023-01-25T11:15:24.540Z,0.69
2023-01-25T11:17:31.500Z,0.76
2023-01-25T11:19:39.391Z,0.50
2023-01-25T11:21:52.771Z,0.45
2023-01-25T11:24:06.533Z,0.77
2023-01-25T11:26:18.409Z,0.84
2023-01-25T11:28:23.272Z,0.99
2023-01-25T11:30:25.606Z,1.04
2023-01-25T11:32:27.180Z,1.19
2023-01-25T11:34:29.560Z,1.35
2023-01-25T11:36:54.066Z,1.33
2023-01-25T11:39:16.985Z,1.26
2023-01-25T11:41:34.856Z,1.31
2023-01-25T11:43:52.042Z,1.39
2023-01-25T11:46:21.628Z,1.14
2023-01-25T11:48:34.996Z,1.06
2023-01-25T11:50:45.163Z,1.17
2023-01-25T11:53:22.501Z,1.21
2023-01-25T11:55:38.782Z,1.55
2023-01-25T11:58:06.503Z,1.46
2023-01-25T12:00:28.698Z,1.22
2023-01-25T12:03:09.855Z,1.37
2023-01-25T12:05:38.310Z,1.56
2023-01-25T12:07:51.188Z,1.58
2023-01-25T12:09:58.616Z,1.63
2023-01-25T12:12:11.143Z,1.72
2023-01-25T12:14:31.621Z,1.64
2023-01-25T12:16:44.982Z,1.47
2023-01-25T12:19:27.647Z,1.67
2023-01-25T12:21:36.946Z,1.73
2023-01-25T12:24:10.531Z,1.53
2023-01-25T12:26:24.982Z,1.51
2023-01-25T12:28:36.512Z,1.64
2023-01-25T12:30:56.222Z,1.68
2023-01-25T12:33:13.901Z,1.65
2023-01-25T12:35:30.439Z,1.69
2023-01-25T12:37:38.928Z,1.84
2023-01-25T12:39:53.626Z,1.36
2023-01-25T12:42:04.700Z,1.38
2023-01-25T12:44:34.999Z,1.43
2023-01-25T12:46:51.220Z,1.25
2023-01-25T12:48:56.529Z,1.16
2023-01-25T12:51:00.129Z,1.17
2023-01-25T12:53:20.270Z,1.36
2023-01-25T12:55:21.899Z,1.37
2023-01-25T12:57:32.513Z,1.46
2023-01-25T12:59:54.585Z,1.61
2023-01-25T13:02:18.475Z,0.76
2023-01-25T13:04:41.572Z,0.25
2023-01-25T13:06:59.554Z,0.07
2023-01-25T13:09:15.616Z,0.19
2023-01-25T13:11:35.347Z,0.10
2023-01-25T13:13:36.845Z,0.23
2023-01-25T13:15:45.471Z,0.39
2023-01-25T13:17:47.036Z,0.46
2023-01-25T13:19:53.425Z,0.73
2023-01-25T13:21:58.545Z,0.44
2023-01-25T13:24:21.864Z,0.30
2023-01-25T13:26:29.199Z,0.57
2023-01-25T13:28:43.156Z,0.84
2023-01-25T13:30:53.104Z,1.05
2023-01-25T13:33:04.331Z,1.22
2023-01-25T13:35:35.333Z,1.23
2023-01-25T13:37:37.535Z,1.30
2023-01-25T13:39:44.705Z,1.00
2023-01-25T13:42:19.231Z,0.84
2023-01-25T13:44:28.275Z,0.73
2023-01-25T13:46:30.014Z,0.98
2023-01-25T13:48:34.107Z,1.06
2023-01-25T13:50:44.784Z,1.21
2023-01-25T13:53:07.082Z,1.27
2023-01-25T13:55:18.259Z,1.35
2023-01-25T13:57:23.143Z,1.07
2023-01-25T13:59:27.285Z,1.20
2023-01-25T14:01:31.509Z,1.14
2023-01-25T14:03:41.469Z,0.92
2023-01-25T14:05:51.002Z,0.99
2023-01-25T14:07:56.155Z,1.11
2023-01-25T14:10:00.609Z,0.66
2023-01-25T14:12:04.169Z,0.45
2023-01-25T14:14:24.874Z,0.59
2023-01-25T14:16:29.684Z,0.83
2023-01-25T14:18:32.586Z,0.69
2023-01-25T14:20:34.228Z,0.03
2023-01-25T14:22:35.843Z,0.13
2023-01-25T14:24:37.377Z,-0.08
2023-01-25T14:26:41.795Z,-0.23
2023-01-25T14:28:59.311Z,-0.42
2023-01-25T14:31:06.001Z,-0.33
2023-01-25T14:33:27.411Z,-0.36
2023-01-25T14:36:05.779Z,-0.16
2023-01-25T14:38:02.844Z,0.02
2023-01-25T14:40:12.377Z,0.32
2023-01-25T14:42:15.985Z,0.21
2023-01-25T14:44:17.917Z,-0.08
2023-01-25T14:46:24.484Z,-0.14
2023-01-25T14:48:41.337Z,0.11
2023-01-25T14:50:43.102Z,0.41
2023-01-25T14:52:45.217Z,0.30
2023-01-25T14:55:02.795Z,-0.08
2023-01-25T14:57:24.099Z,-0.09
2023-01-25T14:59:35.571Z,0.12
2023-01-25T15:01:41.616Z,0.33
2023-01-25T15:03:44.644Z,0.15
2023-01-25T15:05:47.165Z,-0.32
2023-01-25T15:07:54.435Z,-0.25
2023-01-25T15:10:15.185Z,0.10
2023-01-25T15:12:16.654Z,0.03
2023-01-25T15:14:22.251Z,0.26
2023-01-25T15:16:33.850Z,0.35
2023-01-25T15:18:51.785Z,-0.13
2023-01-25T15:20:53.551Z,-0.52
2023-01-25T15:22:56.286Z,-0.29
2023-01-25T15:24:58.702Z,-0.18
2023-01-25T15:27:00.528Z,-0.12
2023-01-25T15:29:12.221Z,-0.01
2023-01-25T15:31:23.190Z,0.02
2023-01-25T15:33:29.690Z,0.01
2023-01-25T15:35:32.515Z,0.14
2023-01-25T15:37:34.069Z,0.26
2023-01-25T15:39:35.636Z,0.28
2023-01-25T15:41:37.329Z,0.37
2023-01-25T15:43:38.899Z,0.46
2023-01-25T15:45:42.948Z,0.43
2023-01-25T15:47:44.468Z,0.16
2023-01-25T15:49:48.597Z,0.18
2023-01-25T15:51:50.148Z,0.21
2023-01-25T15:53:52.534Z,-0.18
2023-01-25T15:55:58.669Z,-0.48
2023-01-25T15:58:00.927Z,-0.34
2023-01-25T16:00:05.146Z,-0.31
2023-01-25T16:02:12.684Z,-0.44
2023-01-25T16:04:14.453Z,-0.36
2023-01-25T16:06:31.255Z,-0.24
2023-01-25T16:08:35.301Z,-0.11
2023-01-25T16:10:37.065Z,0.04
2023-01-25T16:12:38.843Z,0.10
2023-01-25T16:14:40.378Z,0.17
2023-01-25T16:16:49.334Z,0.22
2023-01-25T16:18:51.420Z,0.09
2023-01-25T16:20:52.970Z,0.03
2023-01-25T16:22:54.524Z,0.02
2023-01-25T16:24:56.245Z,-0.07
2023-01-25T16:26:59.119Z,-0.60
2023-01-25T16:29:00.684Z,-1.03
2023-01-25T16:31:02.419Z,-0.62
2023-01-25T16:33:04.324Z,-0.42
2023-01-25T16:35:06.466Z,-0.30
2023-01-25T16:37:15.068Z,-0.23
2023-01-25T16:39:22.357Z,-0.33
2023-01-25T16:41:24.062Z,-0.39
2023-01-25T16:43:31.666Z,-0.27
2023-01-25T16:45:39.782Z,-0.36
2023-01-25T16:47:41.695Z,-0.30
2023-01-25T16:49:43.761Z,-0.15
2023-01-25T16:51:45.785Z,-0.11
2023-01-25T16:53:49.101Z,0.03
2023-01-25T16:55:51.472Z,-0.02
2023-01-25T16:57:52.987Z,0.11
2023-01-25T16:59:54.856Z,0.16
2023-01-25T17:01:56.547Z,-0.16
2023-01-25T17:03:58.766Z,-0.14
2023-01-25T17:06:00.815Z,-0.21
2023-01-25T17:08:02.560Z,-0.29
2023-01-25T17:10:06.397Z,-0.18
2023-01-25T17:12:12.595Z,-0.12
2023-01-25T17:14:17.038Z,-0.53
2023-01-25T17:16:20.701Z,-0.69
2023-01-25T17:18:22.347Z,-0.77
2023-01-25T17:20:24.070Z,-0.63
2023-01-25T17:22:25.768Z,-0.53
2023-01-25T17:24:29.021Z,-0.45
2023-01-25T17:26:31.574Z,-0.49
2023-01-25T17:28:33.163Z,-0.40
2023-01-25T17:30:34.721Z,-0.49
2023-01-25T17:32:36.228Z,-0.32
2023-01-25T17:34:38.033Z,-0.20
2023-01-25T17:36:39.547Z,-0.49
2023-01-25T17:38:41.655Z,-0.74
2023-01-25T17:40:43.614Z,-1.29
2023-01-25T17:42:45.181Z,-1.42
2023-01-25T17:44:46.971Z,-1.56
2023-01-25T17:46:50.095Z,-1.61
2023-01-25T17:48:52.405Z,-1.36
2023-01-25T17:51:01.602Z,-1.12
2023-01-25T17:53:04.296Z,-0.90
2023-01-25T17:55:06.704Z,-0.78
2023-01-25T17:57:09.246Z,-0.65
2023-01-25T17:59:11.528Z,-0.66
2023-01-25T18:01:15.620Z,-0.59
2023-01-25T18:03:17.285Z,-0.54
2023-01-25T18:05:20.155Z,-0.39
2023-01-25T18:07:22.484Z,-0.36
2023-01-25T18:09:25.057Z,-0.33
2023-01-25T18:11:33.393Z,-0.24
2023-01-25T18:13:39.783Z,-0.41
2023-01-25T18:15:41.621Z,-0.45
2023-01-25T18:17:43.120Z,-0.39
2023-01-25T18:19:45.763Z,-0.58
2023-01-25T18:21:47.765Z,-0.59
2023-01-25T18:23:50.759Z,-0.47
2023-01-25T18:25:52.177Z,-0.46
2023-01-25T18:27:53.955Z,-0.34
2023-01-25T18:30:03.019Z,-0.43
2023-01-25T18:32:05.532Z,-0.59
2023-01-25T18:34:07.069Z,-0.61
2023-01-25T18:36:13.631Z,-0.53
2023-01-25T18:38:15.521Z,-0.56
2023-01-25T18:40:18.901Z,-1.02
2023-01-25T18:42:23.360Z,-1.04
2023-01-25T18:44:25.947Z,-0.89
2023-01-25T18:46:27.765Z,-0.79
2023-01-25T18:48:32.506Z,-0.59
2023-01-25T18:50:34.099Z,-0.58
2023-01-25T18:52:36.334Z,-0.49
2023-01-25T18:54:38.059Z,-0.35
2023-01-25T18:56:39.715Z,-0.33
2023-01-25T18:58:42.186Z,-0.46
2023-01-25T19:00:43.728Z,-0.85
2023-01-25T19:02:45.309Z,-0.87
2023-01-25T19:04:47.190Z,-0.59
2023-01-25T19:06:53.626Z,-0.50
2023-01-25T19:08:56.430Z,-0.44
2023-01-25T19:11:03.208Z,-0.63
2023-01-25T19:13:04.776Z,-0.48
2023-01-25T19:15:07.181Z,-0.60
2023-01-25T19:17:08.910Z,-0.47
2023-01-25T19:19:10.521Z,-0.34
2023-01-25T19:21:14.263Z,-0.35
2023-01-25T19:23:15.761Z,-0.34
2023-01-25T19:25:18.041Z,-0.63
2023-01-25T19:27:19.855Z,-0.81
2023-01-25T19:29:21.570Z,-0.60
2023-01-25T19:31:25.567Z,-0.39
2023-01-25T19:33:27.345Z,-0.32
2023-01-25T19:35:31.539Z,-0.37
2023-01-25T19:37:33.626Z,-0.28
2023-01-25T19:39:35.774Z,-0.28
2023-01-25T19:41:38.798Z,-0.63
2023-01-25T19:43:43.864Z,-0.71
2023-01-25T19:45:45.419Z,-0.83
2023-01-25T19:47:46.980Z,-0.80
2023-01-25T19:49:49.267Z,1.27
2023-01-25T19:51:53.057Z,0.01
2023-01-25T19:54:03.182Z,-0.29
2023-01-25T19:56:05.980Z,-0.25
2023-01-25T19:58:09.626Z,-0.27
2023-01-25T20:00:12.581Z,-0.15
2023-01-25T20:02:14.137Z,-0.15
2023-01-25T20:04:19.550Z,-0.26
2023-01-25T20:06:21.271Z,-0.70
2023-01-25T20:08:22.818Z,-0.54
2023-01-25T20:10:24.373Z,-0.49
2023-01-25T20:12:26.336Z,-0.37
2023-01-25T20:14:28.498Z,-0.62
2023-01-25T20:16:32.245Z,-0.69
2023-01-25T20:18:35.077Z,-0.55
2023-01-25T20:20:36.781Z,-0.41
2023-01-25T20:22:38.806Z,-0.50
2023-01-25T20:24:40.293Z,-0.41
2023-01-25T20:26:43.133Z,-0.40
2023-01-25T20:28:47.367Z,-0.29
2023-01-25T20:30:48.952Z,-0.20
2023-01-25T20:32:50.962Z,-0.14
2023-01-25T20:34:52.915Z,-0.18
2023-01-25T20:36:54.780Z,-0.23
2023-01-25T20:38:56.983Z,-0.56
2023-01-25T20:41:03.182Z,-0.63
2023-01-25T20:43:04.809Z,-0.44
2023-01-25T20:45:07.226Z,-0.44
2023-01-25T20:47:08.903Z,-0.48
2023-01-25T20:49:14.729Z,-0.81
2023-01-25T20:51:21.471Z,-0.66
2023-01-25T20:53:23.431Z,-0.53
2023-01-25T20:55:25.023Z,-0.42
2023-01-25T20:57:26.487Z,-0.37
2023-01-25T20:59:28.380Z,-0.46
2023-01-25T21:01:36.546Z,-0.54
2023-01-25T21:03:38.542Z,-0.57
2023-01-25T21:05:48.394Z,-0.54
2023-01-25T21:07:49.932Z,-0.02
2023-01-25T21:09:51.629Z,-0.61
2023-01-25T21:11:53.303Z,-0.77
2023-01-25T21:13:55.009Z,-0.97
2023-01-25T21:16:10.131Z,-1.13
2023-01-25T21:18:11.646Z,-1.23
2023-01-25T21:20:13.192Z,-1.27
2023-01-25T21:22:14.780Z,-1.30
2023-01-25T21:24:16.478Z,-1.31
2023-01-25T21:26:21.561Z,-1.36
2023-01-25T21:28:23.104Z,-1.46
2023-01-25T21:30:24.653Z,-1.49
2023-01-25T21:32:26.155Z,-1.41
2023-01-25T21:34:27.619Z,-1.41
2023-01-25T21:36:29.796Z,-1.43
2023-01-25T21:38:31.336Z,-1.27
2023-01-25T21:40:32.814Z,-1.10
2023-01-25T21:42:34.309Z,-0.81
2023-01-25T21:44:54.661Z,-0.73
2023-01-25T21:47:27.459Z,-0.58
2023-01-25T21:49:36.775Z,-0.55
2023-01-25T21:51:46.875Z,-0.68
2023-01-25T21:53:48.790Z,-0.95
2023-01-25T21:55:57.241Z,-1.14
2023-01-25T21:57:59.015Z,-1.28
2023-01-25T22:00:01.785Z,-1.24
2023-01-25T22:02:11.298Z,-1.33
2023-01-25T22:04:15.674Z,-1.27
2023-01-25T22:06:18.618Z,-1.28
2023-01-25T22:08:20.223Z,-1.13
2023-01-25T22:10:21.823Z,-0.98
2023-01-25T22:12:23.411Z,-1.02
2023-01-25T22:14:25.067Z,-0.88
2023-01-25T22:16:27.405Z,-0.68
2023-01-25T22:18:35.516Z,-0.68
2023-01-25T22:20:37.180Z,-0.61
2023-01-25T22:22:38.723Z,-0.58
2023-01-25T22:24:40.529Z,-0.50
2023-01-25T22:27:06.087Z,-0.52
2023-01-25T22:29:08.352Z,-0.45
2023-01-25T22:31:10.313Z,-0.56
2023-01-25T22:33:11.920Z,-0.60
2023-01-25T22:35:13.468Z,-0.42
2023-01-25T22:37:15.090Z,-0.33
2023-01-25T22:39:16.659Z,-0.35
2023-01-25T22:41:24.260Z,-0.38
2023-01-25T22:43:25.849Z,-0.39
2023-01-25T22:45:27.446Z,-0.40
2023-01-25T22:47:29.136Z,-0.44
2023-01-25T22:49:30.732Z,-0.47
2023-01-25T22:51:32.548Z,-0.48
2023-01-25T22:53:34.909Z,-0.70
2023-01-25T22:55:36.964Z,-0.70
2023-01-25T22:57:38.643Z,-0.70
2023-01-25T22:59:40.502Z,-0.56
2023-01-25T23:01:42.084Z,-0.53
2023-01-25T23:03:44.755Z,-0.57
2023-01-25T23:05:46.261Z,-0.59
2023-01-25T23:07:47.843Z,-0.63
2023-01-25T23:09:51.545Z,-1.00
2023-01-25T23:11:53.624Z,-1.19
2023-01-25T23:14:13.983Z,-1.30
2023-01-25T23:16:15.675Z,-1.11
2023-01-25T23:18:36.007Z,-0.83
2023-01-25T23:20:37.549Z,-0.91
2023-01-25T23:22:39.786Z,-0.77
2023-01-25T23:24:41.714Z,-0.83
2023-01-25T23:26:46.086Z,-0.75
2023-01-25T23:28:56.684Z,-0.69
2023-01-25T23:31:22.185Z,-0.70
2023-01-25T23:33:24.475Z,-1.06
2023-01-25T23:35:27.284Z,-1.04
2023-01-25T23:37:28.917Z,-0.93
2023-01-25T23:39:30.503Z,-1.07
2023-01-25T23:41:32.293Z,-1.17
2023-01-25T23:43:34.417Z,-1.34
2023-01-25T23:45:36.597Z,-1.47
2023-01-25T23:47:38.785Z,-1.52
2023-01-25T23:49:40.522Z,-1.28
2023-01-25T23:51:42.169Z,-1.17
2023-01-25T23:53:44.480Z,-1.15
2023-01-25T23:55:58.429Z,-1.01
2023-01-25T23:58:00.126Z,-0.80
